sensor_id;sensor_type;location;lat;lon;timestamp;pressure;altitude;pressure_sealevel;temperature;humidity
17060;BME280;8646;49.716;9.266;2023-02-23T00:01:00;99962.50;;;8.56;94.25
17060;BME280;8646;49.716;9.266;2023-02-23T00:04:04;99966.91;;;8.58;94.11
17060;BME280;8646;49.716;9.266;2023-02-23T00:07:07;99955.97;;;8.61;93.92
17060;BME280;8646;49.716;9.266;2023-02-23T00:10:12;99964.00;;;8.63;94.15
17060;BME280;8646;49.716;9.266;2023-02-23T00:13:15;99951.22;;;8.68;93.47
17060;BME280;8646;49.716;9.266;2023-02-23T00:16:20;99936.09;;;8.64;93.36
17060;BME280;8646;49.716;9.266;2023-02-23T00:19:24;99945.25;;;8.60;93.68
17060;BME280;8646;49.716;9.266;2023-02-23T00:22:27;99941.81;;;8.56;94.47
17060;BME280;8646;49.716;9.266;2023-02-23T00:25:30;99944.06;;;8.45;94.73
17060;BME280;8646;49.716;9.266;2023-02-23T00:28:33;99926.88;;;8.24;95.17
17060;BME280;8646;49.716;9.266;2023-02-23T00:31:35;99948.94;;;8.35;95.40
17060;BME280;8646;49.716;9.266;2023-02-23T00:34:40;99950.47;;;8.43;95.12
17060;BME280;8646;49.716;9.266;2023-02-23T00:37:43;99938.53;;;8.48;95.06
17060;BME280;8646;49.716;9.266;2023-02-23T00:40:47;99944.88;;;8.47;94.84
17060;BME280;8646;49.716;9.266;2023-02-23T00:43:50;99937.59;;;8.49;94.93
17060;BME280;8646;49.716;9.266;2023-02-23T00:46:55;99946.69;;;8.47;94.85
17060;BME280;8646;49.716;9.266;2023-02-23T00:49:59;99952.34;;;8.40;95.25
17060;BME280;8646;49.716;9.266;2023-02-23T00:53:02;99943.44;;;8.38;95.34
17060;BME280;8646;49.716;9.266;2023-02-23T00:56:07;99955.19;;;8.36;95.32
17060;BME280;8646;49.716;9.266;2023-02-23T00:59:11;99944.56;;;8.33;95.56
17060;BME280;8646;49.716;9.266;2023-02-23T01:02:14;99943.53;;;8.35;95.23
17060;BME280;8646;49.716;9.266;2023-02-23T01:05:19;99937.41;;;8.32;95.49
17060;BME280;8646;49.716;9.266;2023-02-23T01:08:22;99953.47;;;8.35;95.43
17060;BME280;8646;49.716;9.266;2023-02-23T01:11:26;99941.84;;;8.33;95.43
17060;BME280;8646;49.716;9.266;2023-02-23T01:14:31;99936.69;;;8.27;95.70
17060;BME280;8646;49.716;9.266;2023-02-23T01:17:34;99947.53;;;8.25;95.79
17060;BME280;8646;49.716;9.266;2023-02-23T01:20:38;99941.09;;;8.28;96.01
17060;BME280;8646;49.716;9.266;2023-02-23T01:23:43;99941.25;;;8.25;96.06
17060;BME280;8646;49.716;9.266;2023-02-23T01:26:46;99934.84;;;8.27;96.36
17060;BME280;8646;49.716;9.266;2023-02-23T01:29:49;99937.28;;;8.35;96.03
17060;BME280;8646;49.716;9.266;2023-02-23T01:32:51;99940.94;;;8.34;95.94
17060;BME280;8646;49.716;9.266;2023-02-23T01:35:59;99934.59;;;8.35;96.04
17060;BME280;8646;49.716;9.266;2023-02-23T01:39:04;99939.75;;;8.41;96.15
17060;BME280;8646;49.716;9.266;2023-02-23T01:42:10;99941.50;;;8.42;95.95
17060;BME280;8646;49.716;9.266;2023-02-23T01:45:23;99937.66;;;8.48;95.59
17060;BME280;8646;49.716;9.266;2023-02-23T01:48:27;99935.59;;;8.54;95.65
17060;BME280;8646;49.716;9.266;2023-02-23T01:51:37;99937.47;;;8.52;95.36
17060;BME280;8646;49.716;9.266;2023-02-23T01:54:46;99938.44;;;8.51;95.56
17060;BME280;8646;49.716;9.266;2023-02-23T01:57:54;99933.03;;;8.51;95.96
17060;BME280;8646;49.716;9.266;2023-02-23T02:00:58;99917.34;;;8.39;95.98
17060;BME280;8646;49.716;9.266;2023-02-23T02:04:03;99933.25;;;8.45;96.13
17060;BME280;8646;49.716;9.266;2023-02-23T02:07:08;99932.38;;;8.45;96.17
17060;BME280;8646;49.716;9.266;2023-02-23T02:10:11;99933.22;;;8.47;96.22
17060;BME280;8646;49.716;9.266;2023-02-23T02:13:47;99925.78;;;8.52;95.93
17060;BME280;8646;49.716;9.266;2023-02-23T02:17:02;99924.19;;;8.48;96.07
17060;BME280;8646;49.716;9.266;2023-02-23T02:20:31;99931.41;;;8.47;96.60
17060;BME280;8646;49.716;9.266;2023-02-23T02:24:03;99928.81;;;8.44;96.74
17060;BME280;8646;49.716;9.266;2023-02-23T02:27:23;99919.09;;;8.40;96.89
17060;BME280;8646;49.716;9.266;2023-02-23T02:30:47;99923.63;;;8.39;97.01
17060;BME280;8646;49.716;9.266;2023-02-23T02:34:03;99916.16;;;8.46;96.51
17060;BME280;8646;49.716;9.266;2023-02-23T02:41:01;99924.56;;;8.38;96.94
17060;BME280;8646;49.716;9.266;2023-02-23T02:44:10;99912.78;;;8.41;97.09
17060;BME280;8646;49.716;9.266;2023-02-23T02:47:18;99915.47;;;8.41;96.87
17060;BME280;8646;49.716;9.266;2023-02-23T02:50:29;99917.34;;;8.39;97.07
17060;BME280;8646;49.716;9.266;2023-02-23T02:53:39;99914.53;;;8.42;97.54
17060;BME280;8646;49.716;9.266;2023-02-23T02:56:43;99918.41;;;8.35;97.48
17060;BME280;8646;49.716;9.266;2023-02-23T02:59:48;99911.44;;;8.28;97.80
17060;BME280;8646;49.716;9.266;2023-02-23T03:03:27;99915.84;;;8.32;97.56
17060;BME280;8646;49.716;9.266;2023-02-23T03:06:51;99917.66;;;8.30;97.70
17060;BME280;8646;49.716;9.266;2023-02-23T03:10:23;99920.34;;;8.31;98.00
17060;BME280;8646;49.716;9.266;2023-02-23T03:14:00;99910.66;;;8.26;97.78
17060;BME280;8646;49.716;9.266;2023-02-23T03:17:29;99913.09;;;8.33;97.70
17060;BME280;8646;49.716;9.266;2023-02-23T03:20:58;99915.72;;;8.35;97.94
17060;BME280;8646;49.716;9.266;2023-02-23T03:24:27;99917.44;;;8.36;97.99
17060;BME280;8646;49.716;9.266;2023-02-23T03:27:53;99918.16;;;8.41;97.99
17060;BME280;8646;49.716;9.266;2023-02-23T03:31:21;99907.50;;;8.38;97.65
17060;BME280;8646;49.716;9.266;2023-02-23T03:34:52;99920.88;;;8.41;97.63
17060;BME280;8646;49.716;9.266;2023-02-23T03:38:16;99920.91;;;8.39;97.99
17060;BME280;8646;49.716;9.266;2023-02-23T03:41:39;99922.47;;;8.45;97.63
17060;BME280;8646;49.716;9.266;2023-02-23T03:45:08;99922.63;;;8.42;97.87
17060;BME280;8646;49.716;9.266;2023-02-23T03:48:30;99918.91;;;8.45;97.69
17060;BME280;8646;49.716;9.266;2023-02-23T03:51:59;99920.97;;;8.38;98.53
17060;BME280;8646;49.716;9.266;2023-02-23T03:55:24;99922.84;;;8.36;98.70
17060;BME280;8646;49.716;9.266;2023-02-23T03:58:49;99927.72;;;8.26;99.05
17060;BME280;8646;49.716;9.266;2023-02-23T04:02:17;99904.59;;;8.19;99.06
17060;BME280;8646;49.716;9.266;2023-02-23T04:05:40;99936.53;;;8.30;99.16
17060;BME280;8646;49.716;9.266;2023-02-23T04:09:04;99927.81;;;8.23;99.32
17060;BME280;8646;49.716;9.266;2023-02-23T04:12:30;99910.09;;;8.18;99.87
17060;BME280;8646;49.716;9.266;2023-02-23T04:15:55;99919.75;;;8.23;100.00
17060;BME280;8646;49.716;9.266;2023-02-23T04:18:59;99934.41;;;8.16;100.00
17060;BME280;8646;49.716;9.266;2023-02-23T04:22:02;99929.16;;;8.12;100.00
17060;BME280;8646;49.716;9.266;2023-02-23T04:25:06;99930.34;;;8.04;100.00
17060;BME280;8646;49.716;9.266;2023-02-23T04:28:09;99940.25;;;8.04;100.00
17060;BME280;8646;49.716;9.266;2023-02-23T04:31:12;99936.56;;;8.07;100.00
17060;BME280;8646;49.716;9.266;2023-02-23T04:34:16;99934.13;;;8.00;100.00
17060;BME280;8646;49.716;9.266;2023-02-23T04:37:18;99939.25;;;8.07;100.00
17060;BME280;8646;49.716;9.266;2023-02-23T04:40:21;99935.56;;;8.09;100.00
17060;BME280;8646;49.716;9.266;2023-02-23T04:43:24;99942.78;;;8.09;100.00
17060;BME280;8646;49.716;9.266;2023-02-23T04:46:27;99940.81;;;8.12;100.00
17060;BME280;8646;49.716;9.266;2023-02-23T04:49:32;99938.09;;;8.14;100.00
17060;BME280;8646;49.716;9.266;2023-02-23T04:52:34;99933.81;;;8.08;100.00
17060;BME280;8646;49.716;9.266;2023-02-23T04:55:38;99936.56;;;8.07;100.00
17060;BME280;8646;49.716;9.266;2023-02-23T04:58:41;99936.66;;;8.03;100.00
17060;BME280;8646;49.716;9.266;2023-02-23T05:01:43;99935.75;;;8.04;100.00
17060;BME280;8646;49.716;9.266;2023-02-23T05:04:47;99936.81;;;8.00;100.00
17060;BME280;8646;49.716;9.266;2023-02-23T05:07:50;99939.66;;;7.96;100.00
17060;BME280;8646;49.716;9.266;2023-02-23T05:10:54;99943.22;;;7.96;100.00
17060;BME280;8646;49.716;9.266;2023-02-23T05:13:56;99938.38;;;8.06;100.00
17060;BME280;8646;49.716;9.266;2023-02-23T05:16:59;99944.41;;;8.13;100.00
17060;BME280;8646;49.716;9.266;2023-02-23T05:20:04;99942.63;;;8.12;100.00
17060;BME280;8646;49.716;9.266;2023-02-23T05:23:07;99941.72;;;8.13;100.00
17060;BME280;8646;49.716;9.266;2023-02-23T05:26:11;99939.94;;;8.12;100.00
17060;BME280;8646;49.716;9.266;2023-02-23T05:29:14;99938.09;;;8.14;100.00
17060;BME280;8646;49.716;9.266;2023-02-23T05:32:17;99940.19;;;8.05;100.00
17060;BME280;8646;49.716;9.266;2023-02-23T05:35:21;99933.75;;;8.10;100.00
17060;BME280;8646;49.716;9.266;2023-02-23T05:38:25;99930.13;;;8.11;100.00
17060;BME280;8646;49.716;9.266;2023-02-23T05:41:27;99936.66;;;8.03;100.00
17060;BME280;8646;49.716;9.266;2023-02-23T05:44:30;99937.56;;;8.04;100.00
17060;BME280;8646;49.716;9.266;2023-02-23T05:47:33;99926.78;;;8.04;100.00
17060;BME280;8646;49.716;9.266;2023-02-23T05:50:40;99940.34;;;8.02;100.00
17060;BME280;8646;49.716;9.266;2023-02-23T05:53:43;99947.03;;;8.14;100.00
17060;BME280;8646;49.716;9.266;2023-02-23T05:56:53;99949.09;;;8.08;100.00
17060;BME280;8646;49.716;9.266;2023-02-23T05:59:56;99944.53;;;8.10;100.00
17060;BME280;8646;49.716;9.266;2023-02-23T06:03:12;99922.63;;;7.95;100.00
17060;BME280;8646;49.716;9.266;2023-02-23T06:06:23;99941.38;;;7.98;100.00
17060;BME280;8646;49.716;9.266;2023-02-23T06:09:26;99940.53;;;7.96;100.00
17060;BME280;8646;49.716;9.266;2023-02-23T06:12:31;99949.44;;;7.98;100.00
17060;BME280;8646;49.716;9.266;2023-02-23T06:15:37;99949.09;;;8.08;100.00
17060;BME280;8646;49.716;9.266;2023-02-23T06:18:40;99946.00;;;8.18;100.00
17060;BME280;8646;49.716;9.266;2023-02-23T06:21:44;99944.09;;;8.20;100.00
17060;BME280;8646;49.716;9.266;2023-02-23T06:24:47;99948.75;;;8.17;100.00
17060;BME280;8646;49.716;9.266;2023-02-23T06:27:50;99944.88;;;8.24;100.00
17060;BME280;8646;49.716;9.266;2023-02-23T06:30:53;99946.41;;;8.31;100.00
17060;BME280;8646;49.716;9.266;2023-02-23T06:33:56;99953.13;;;8.19;100.00
17060;BME280;8646;49.716;9.266;2023-02-23T06:37:00;99953.06;;;8.21;100.00
17060;BME280;8646;49.716;9.266;2023-02-23T06:40:04;99954.72;;;8.25;100.00
17060;BME280;8646;49.716;9.266;2023-02-23T06:43:07;99958.41;;;8.22;100.00
17060;BME280;8646;49.716;9.266;2023-02-23T06:46:09;99961.06;;;8.24;100.00
17060;BME280;8646;49.716;9.266;2023-02-23T06:49:12;99971.84;;;8.24;100.00
17060;BME280;8646;49.716;9.266;2023-02-23T06:52:18;99975.16;;;8.30;100.00
17060;BME280;8646;49.716;9.266;2023-02-23T06:55:21;99973.38;;;8.31;100.00
17060;BME280;8646;49.716;9.266;2023-02-23T06:58:24;99977.97;;;8.27;100.00
17060;BME280;8646;49.716;9.266;2023-02-23T07:01:27;99977.22;;;8.24;100.00
17060;BME280;8646;49.716;9.266;2023-02-23T07:04:30;99968.06;;;8.28;100.00
17060;BME280;8646;49.716;9.266;2023-02-23T07:07:34;99980.53;;;8.32;100.00
17060;BME280;8646;49.716;9.266;2023-02-23T07:10:37;99979.41;;;8.37;100.00
17060;BME280;8646;49.716;9.266;2023-02-23T07:13:40;99980.13;;;8.43;100.00
17060;BME280;8646;49.716;9.266;2023-02-23T07:16:43;99978.22;;;8.45;100.00
17060;BME280;8646;49.716;9.266;2023-02-23T07:19:48;99990.63;;;8.50;100.00
17060;BME280;8646;49.716;9.266;2023-02-23T07:22:52;99977.81;;;8.55;100.00
17060;BME280;8646;49.716;9.266;2023-02-23T07:25:55;99982.63;;;8.69;100.00
17060;BME280;8646;49.716;9.266;2023-02-23T07:29:04;99978.84;;;8.74;100.00
17060;BME280;8646;49.716;9.266;2023-02-23T07:32:06;99982.53;;;8.72;100.00
17060;BME280;8646;49.716;9.266;2023-02-23T07:35:09;99981.22;;;8.82;100.00
17060;BME280;8646;49.716;9.266;2023-02-23T07:38:13;99985.78;;;8.80;100.00
17060;BME280;8646;49.716;9.266;2023-02-23T07:41:16;99988.50;;;8.80;100.00
17060;BME280;8646;49.716;9.266;2023-02-23T07:44:19;99985.75;;;8.82;100.00
17060;BME280;8646;49.716;9.266;2023-02-23T07:47:25;99988.22;;;8.86;100.00
17060;BME280;8646;49.716;9.266;2023-02-23T07:50:31;99982.72;;;8.89;100.00
17060;BME280;8646;49.716;9.266;2023-02-23T07:53:35;99993.19;;;8.97;100.00
17060;BME280;8646;49.716;9.266;2023-02-23T07:56:38;99993.94;;;9.00;100.00
17060;BME280;8646;49.716;9.266;2023-02-23T07:59:44;99991.88;;;9.07;100.00
17060;BME280;8646;49.716;9.266;2023-02-23T08:02:47;99997.28;;;9.07;100.00
17060;BME280;8646;49.716;9.266;2023-02-23T08:05:49;100002.41;;;9.13;100.00
17060;BME280;8646;49.716;9.266;2023-02-23T08:08:54;100007.56;;;9.19;100.00
17060;BME280;8646;49.716;9.266;2023-02-23T08:11:56;100003.81;;;9.23;100.00
17060;BME280;8646;49.716;9.266;2023-02-23T08:14:59;100001.38;;;9.37;100.00
17060;BME280;8646;49.716;9.266;2023-02-23T08:18:02;100005.78;;;9.40;100.00
17060;BME280;8646;49.716;9.266;2023-02-23T08:21:05;100008.28;;;9.44;100.00
17060;BME280;8646;49.716;9.266;2023-02-23T08:24:09;100010.91;;;9.46;100.00
17060;BME280;8646;49.716;9.266;2023-02-23T08:27:12;100008.94;;;9.49;100.00
17060;BME280;8646;49.716;9.266;2023-02-23T08:30:15;99999.84;;;9.52;100.00
17060;BME280;8646;49.716;9.266;2023-02-23T08:33:18;100005.44;;;9.68;100.00
17060;BME280;8646;49.716;9.266;2023-02-23T08:36:21;100007.69;;;9.78;100.00
17060;BME280;8646;49.716;9.266;2023-02-23T08:39:25;100006.41;;;9.87;99.17
17060;BME280;8646;49.716;9.266;2023-02-23T08:42:28;100008.28;;;9.85;99.05
17060;BME280;8646;49.716;9.266;2023-02-23T08:45:31;100009.16;;;9.85;99.03
17060;BME280;8646;49.716;9.266;2023-02-23T08:48:34;100013.56;;;9.88;99.22
17060;BME280;8646;49.716;9.266;2023-02-23T08:51:39;100009.91;;;9.89;99.02
17060;BME280;8646;49.716;9.266;2023-02-23T08:54:47;100003.81;;;10.04;98.77
17060;BME280;8646;49.716;9.266;2023-02-23T08:57:50;100010.16;;;10.03;99.00
17060;BME280;8646;49.716;9.266;2023-02-23T09:00:52;99999.72;;;10.14;98.78
17060;BME280;8646;49.716;9.266;2023-02-23T09:03:55;100003.50;;;10.30;98.22
17060;BME280;8646;49.716;9.266;2023-02-23T09:06:58;100005.22;;;10.52;97.70
17060;BME280;8646;49.716;9.266;2023-02-23T09:10:02;100004.34;;;10.70;97.43
17060;BME280;8646;49.716;9.266;2023-02-23T09:13:05;100000.59;;;10.91;97.27
17060;BME280;8646;49.716;9.266;2023-02-23T09:16:08;99999.50;;;11.13;96.59
17060;BME280;8646;49.716;9.266;2023-02-23T09:19:11;99989.03;;;11.24;94.93
17060;BME280;8646;49.716;9.266;2023-02-23T09:22:14;100000.34;;;11.32;94.91
17060;BME280;8646;49.716;9.266;2023-02-23T09:25:20;99991.34;;;11.48;94.77
17060;BME280;8646;49.716;9.266;2023-02-23T09:28:24;99993.28;;;11.64;94.73
17060;BME280;8646;49.716;9.266;2023-02-23T09:31:31;99986.28;;;11.77;93.91
17060;BME280;8646;49.716;9.266;2023-02-23T09:34:34;100003.00;;;11.85;92.88
17060;BME280;8646;49.716;9.266;2023-02-23T09:37:38;99997.03;;;11.78;93.05
17060;BME280;8646;49.716;9.266;2023-02-23T09:40:46;100000.28;;;11.68;93.41
17060;BME280;8646;49.716;9.266;2023-02-23T09:43:55;100003.38;;;11.60;94.07
17060;BME280;8646;49.716;9.266;2023-02-23T09:47:12;100005.59;;;11.52;94.25
17060;BME280;8646;49.716;9.266;2023-02-23T09:50:21;100007.63;;;11.48;94.13
17060;BME280;8646;49.716;9.266;2023-02-23T09:53:29;100006.88;;;11.45;94.76
17060;BME280;8646;49.716;9.266;2023-02-23T09:56:37;100013.44;;;11.41;94.71
17060;BME280;8646;49.716;9.266;2023-02-23T09:59:41;100020.75;;;11.39;95.20
17060;BME280;8646;49.716;9.266;2023-02-23T10:03:10;100013.00;;;11.31;95.27
17060;BME280;8646;49.716;9.266;2023-02-23T10:06:16;100017.69;;;11.28;95.32
17060;BME280;8646;49.716;9.266;2023-02-23T10:09:29;100017.69;;;11.28;95.35
17060;BME280;8646;49.716;9.266;2023-02-23T10:12:43;100021.69;;;11.38;95.87
17060;BME280;8646;49.716;9.266;2023-02-23T10:15:55;100026.19;;;11.56;95.51
17060;BME280;8646;49.716;9.266;2023-02-23T10:19:06;100010.25;;;11.67;95.15
17060;BME280;8646;49.716;9.266;2023-02-23T10:22:14;100021.22;;;11.83;94.53
17060;BME280;8646;49.716;9.266;2023-02-23T10:25:21;100018.56;;;11.81;94.46
17060;BME280;8646;49.716;9.266;2023-02-23T10:28:32;100016.66;;;11.83;94.39
17060;BME280;8646;49.716;9.266;2023-02-23T10:31:40;100010.91;;;11.90;94.10
17060;BME280;8646;49.716;9.266;2023-02-23T10:34:45;100013.63;;;11.90;94.10
17060;BME280;8646;49.716;9.266;2023-02-23T10:37:50;100016.00;;;11.96;93.91
17060;BME280;8646;49.716;9.266;2023-02-23T10:40:55;100019.19;;;12.04;93.45
17060;BME280;8646;49.716;9.266;2023-02-23T10:44:14;100019.72;;;12.10;93.31
17060;BME280;8646;49.716;9.266;2023-02-23T10:47:23;100020.28;;;12.17;93.38
17060;BME280;8646;49.716;9.266;2023-02-23T10:50:29;100014.53;;;12.23;92.93
17060;BME280;8646;49.716;9.266;2023-02-23T10:53:34;100013.84;;;12.35;93.16
17060;BME280;8646;49.716;9.266;2023-02-23T10:56:43;100017.03;;;12.43;92.96
17060;BME280;8646;49.716;9.266;2023-02-23T11:03:25;100006.63;;;12.51;93.11
17060;BME280;8646;49.716;9.266;2023-02-23T11:06:32;100011.97;;;12.53;93.12
17060;BME280;8646;49.716;9.266;2023-02-23T11:09:38;100006.53;;;12.53;93.23
17060;BME280;8646;49.716;9.266;2023-02-23T11:12:48;100007.91;;;12.44;92.80
17060;BME280;8646;49.716;9.266;2023-02-23T11:15:59;100013.84;;;12.35;92.79
17060;BME280;8646;49.716;9.266;2023-02-23T11:19:04;100010.69;;;12.27;92.95
17060;BME280;8646;49.716;9.266;2023-02-23T11:22:18;100010.13;;;12.20;93.66
17060;BME280;8646;49.716;9.266;2023-02-23T11:25:27;100007.84;;;12.13;94.08
17060;BME280;8646;49.716;9.266;2023-02-23T11:28:33;100002.41;;;12.13;94.00
17060;BME280;8646;49.716;9.266;2023-02-23T11:31:39;100006.25;;;12.09;94.41
17060;BME280;8646;49.716;9.266;2023-02-23T11:34:43;99990.66;;;11.97;94.70
17060;BME280;8646;49.716;9.266;2023-02-23T11:37:49;99989.09;;;12.08;94.85
17060;BME280;8646;49.716;9.266;2023-02-23T11:40:59;100001.75;;;12.25;94.67
17060;BME280;8646;49.716;9.266;2023-02-23T11:44:03;99986.56;;;12.38;94.65
17060;BME280;8646;49.716;9.266;2023-02-23T11:47:15;99990.09;;;12.72;94.36
17060;BME280;8646;49.716;9.266;2023-02-23T11:50:22;99980.81;;;12.91;93.49
17060;BME280;8646;49.716;9.266;2023-02-23T11:53:29;99983.25;;;13.27;92.98
17060;BME280;8646;49.716;9.266;2023-02-23T11:56:36;99979.06;;;13.52;92.42
17060;BME280;8646;49.716;9.266;2023-02-23T11:59:40;99979.13;;;13.80;91.48
17060;BME280;8646;49.716;9.266;2023-02-23T12:02:49;99971.78;;;13.96;91.50
17060;BME280;8646;49.716;9.266;2023-02-23T12:05:55;99969.38;;;14.06;91.09
17060;BME280;8646;49.716;9.266;2023-02-23T12:09:08;99952.78;;;14.10;90.93
17060;BME280;8646;49.716;9.266;2023-02-23T12:12:16;99955.88;;;14.19;90.72
17060;BME280;8646;49.716;9.266;2023-02-23T12:15:31;99959.56;;;14.32;90.13
17060;BME280;8646;49.716;9.266;2023-02-23T12:18:44;99946.94;;;14.45;89.66
17060;BME280;8646;49.716;9.266;2023-02-23T12:21:54;99941.97;;;14.51;89.19
17060;BME280;8646;49.716;9.266;2023-02-23T12:25:02;99944.19;;;14.73;88.46
17060;BME280;8646;49.716;9.266;2023-02-23T12:28:11;99943.59;;;14.82;88.74
17060;BME280;8646;49.716;9.266;2023-02-23T12:31:22;99947.06;;;14.84;87.65
17060;BME280;8646;49.716;9.266;2023-02-23T12:34:31;99941.06;;;14.79;87.82
17060;BME280;8646;49.716;9.266;2023-02-23T12:37:39;99943.81;;;14.65;87.11
17060;BME280;8646;49.716;9.266;2023-02-23T12:40:44;99939.38;;;14.50;87.24
17060;BME280;8646;49.716;9.266;2023-02-23T12:43:49;99927.69;;;14.34;87.15
17060;BME280;8646;49.716;9.266;2023-02-23T12:46:56;99930.22;;;14.23;87.15
17060;BME280;8646;49.716;9.266;2023-02-23T12:50:04;99923.00;;;14.22;87.63
17060;BME280;8646;49.716;9.266;2023-02-23T12:53:20;99921.06;;;14.24;87.24
17060;BME280;8646;49.716;9.266;2023-02-23T12:56:31;99917.97;;;14.30;87.28
17060;BME280;8646;49.716;9.266;2023-02-23T12:59:47;99924.59;;;14.40;87.24
17060;BME280;8646;49.716;9.266;2023-02-23T13:03:04;99915.25;;;14.58;86.70
17060;BME280;8646;49.716;9.266;2023-02-23T13:06:19;99912.28;;;14.75;86.33
17060;BME280;8646;49.716;9.266;2023-02-23T13:09:32;99909.16;;;14.81;83.78
17060;BME280;8646;49.716;9.266;2023-02-23T13:12:45;99906.94;;;14.74;82.11
17060;BME280;8646;49.716;9.266;2023-02-23T13:15:57;99909.28;;;14.66;81.04
17060;BME280;8646;49.716;9.266;2023-02-23T13:19:06;99895.53;;;14.40;81.32
17060;BME280;8646;49.716;9.266;2023-02-23T13:22:25;99909.13;;;14.26;81.82
17060;BME280;8646;49.716;9.266;2023-02-23T13:25:38;99911.84;;;14.12;82.51
17060;BME280;8646;49.716;9.266;2023-02-23T13:28:49;99917.00;;;14.02;83.42
17060;BME280;8646;49.716;9.266;2023-02-23T13:31:58;99911.19;;;13.94;83.98
17060;BME280;8646;49.716;9.266;2023-02-23T13:35:03;99910.56;;;13.89;84.48
17060;BME280;8646;49.716;9.266;2023-02-23T13:38:14;99913.78;;;13.96;84.29
17060;BME280;8646;49.716;9.266;2023-02-23T13:41:28;99906.88;;;14.04;82.94
17060;BME280;8646;49.716;9.266;2023-02-23T13:44:37;99904.28;;;14.17;82.22
17060;BME280;8646;49.716;9.266;2023-02-23T13:47:46;99895.69;;;14.37;80.27
17060;BME280;8646;49.716;9.266;2023-02-23T13:50:55;99888.81;;;14.46;79.69
17060;BME280;8646;49.716;9.266;2023-02-23T13:54:23;99893.25;;;14.61;80.85
17060;BME280;8646;49.716;9.266;2023-02-23T13:57:26;99891.66;;;14.71;80.23
17060;BME280;8646;49.716;9.266;2023-02-23T14:00:30;99876.03;;;14.61;80.73
17060;BME280;8646;49.716;9.266;2023-02-23T14:03:40;99900.09;;;14.81;80.72
17060;BME280;8646;49.716;9.266;2023-02-23T14:06:52;99898.34;;;14.80;80.38
17060;BME280;8646;49.716;9.266;2023-02-23T14:10:05;99892.34;;;14.75;80.00
17060;BME280;8646;49.716;9.266;2023-02-23T14:13:25;99892.63;;;14.70;80.15
17060;BME280;8646;49.716;9.266;2023-02-23T14:16:31;99896.56;;;14.66;79.45
17060;BME280;8646;49.716;9.266;2023-02-23T14:19:41;99891.47;;;14.60;77.20
17060;BME280;8646;49.716;9.266;2023-02-23T14:26:38;99895.22;;;14.45;78.09
17060;BME280;8646;49.716;9.266;2023-02-23T14:29:42;99892.50;;;14.45;78.41
17060;BME280;8646;49.716;9.266;2023-02-23T14:36:42;99892.97;;;14.37;77.41
17060;BME280;8646;49.716;9.266;2023-02-23T14:39:48;99889.31;;;14.38;77.58
17060;BME280;8646;49.716;9.266;2023-02-23T14:42:56;99884.13;;;14.34;77.85
17060;BME280;8646;49.716;9.266;2023-02-23T14:46:01;99884.88;;;14.36;77.29
17060;BME280;8646;49.716;9.266;2023-02-23T14:49:17;99878.00;;;14.30;77.34
17060;BME280;8646;49.716;9.266;2023-02-23T14:52:22;99870.94;;;14.13;76.66
17060;BME280;8646;49.716;9.266;2023-02-23T14:55:27;99884.91;;;14.22;75.40
17060;BME280;8646;49.716;9.266;2023-02-23T14:58:31;99884.25;;;14.18;76.07
17060;BME280;8646;49.716;9.266;2023-02-23T15:01:38;99888.03;;;14.16;76.99
17060;BME280;8646;49.716;9.266;2023-02-23T15:04:41;99881.22;;;14.23;75.70
17060;BME280;8646;49.716;9.266;2023-02-23T15:07:46;99875.78;;;14.23;72.60
17060;BME280;8646;49.716;9.266;2023-02-23T15:10:58;99883.28;;;14.05;73.86
17060;BME280;8646;49.716;9.266;2023-02-23T15:14:03;99876.56;;;13.96;73.83
17060;BME280;8646;49.716;9.266;2023-02-23T15:17:15;99883.69;;;13.99;72.99
17060;BME280;8646;49.716;9.266;2023-02-23T15:20:21;99875.13;;;13.77;74.66
17060;BME280;8646;49.716;9.266;2023-02-23T15:23:33;99896.00;;;13.90;73.92
17060;BME280;8646;49.716;9.266;2023-02-23T15:26:39;99885.63;;;13.83;73.16
17060;BME280;8646;49.716;9.266;2023-02-23T15:29:45;99891.06;;;13.68;73.73
17060;BME280;8646;49.716;9.266;2023-02-23T15:32:49;99897.06;;;13.59;75.03
17060;BME280;8646;49.716;9.266;2023-02-23T15:36:07;99909.19;;;13.54;75.43
17060;BME280;8646;49.716;9.266;2023-02-23T15:39:13;99898.19;;;13.41;75.72
17060;BME280;8646;49.716;9.266;2023-02-23T15:42:23;99902.72;;;13.41;75.67
17060;BME280;8646;49.716;9.266;2023-02-23T15:45:31;99905.13;;;13.31;76.32
17060;BME280;8646;49.716;9.266;2023-02-23T15:48:41;99908.94;;;13.28;76.81
17060;BME280;8646;49.716;9.266;2023-02-23T15:51:48;99903.84;;;13.22;76.81
17060;BME280;8646;49.716;9.266;2023-02-23T15:54:54;99914.03;;;13.19;77.48
17060;BME280;8646;49.716;9.266;2023-02-23T15:58:10;99908.59;;;13.19;77.43
17060;BME280;8646;49.716;9.266;2023-02-23T16:01:20;99914.38;;;13.13;77.94
17060;BME280;8646;49.716;9.266;2023-02-23T16:04:28;99917.19;;;13.11;78.33
17060;BME280;8646;49.716;9.266;2023-02-23T16:07:35;99916.03;;;13.15;77.89
17060;BME280;8646;49.716;9.266;2023-02-23T16:10:43;99919.09;;;13.09;77.96
17060;BME280;8646;49.716;9.266;2023-02-23T16:13:48;99920.84;;;13.10;78.04
17060;BME280;8646;49.716;9.266;2023-02-23T16:16:56;99920.16;;;13.07;78.11
17060;BME280;8646;49.716;9.266;2023-02-23T16:20:15;99916.13;;;12.98;78.53
17060;BME280;8646;49.716;9.266;2023-02-23T16:23:24;99904.25;;;12.85;79.09
17060;BME280;8646;49.716;9.266;2023-02-23T16:26:45;99918.63;;;12.87;79.56
17060;BME280;8646;49.716;9.266;2023-02-23T16:29:56;99920.53;;;12.85;80.38
17060;BME280;8646;49.716;9.266;2023-02-23T16:33:05;99924.06;;;12.87;80.32
17060;BME280;8646;49.716;9.266;2023-02-23T16:36:14;99935.06;;;12.84;80.95
17060;BME280;8646;49.716;9.266;2023-02-23T16:39:18;99925.47;;;12.78;80.86
17060;BME280;8646;49.716;9.266;2023-02-23T16:42:27;99929.06;;;12.79;81.25
17060;BME280;8646;49.716;9.266;2023-02-23T16:45:33;99931.84;;;12.77;81.62
17060;BME280;8646;49.716;9.266;2023-02-23T16:48:39;99931.94;;;12.76;81.99
17060;BME280;8646;49.716;9.266;2023-02-23T16:51:41;99934.94;;;12.71;82.13
17060;BME280;8646;49.716;9.266;2023-02-23T16:54:44;99939.19;;;12.59;82.70
17060;BME280;8646;49.716;9.266;2023-02-23T16:57:49;99934.28;;;12.50;83.11
17060;BME280;8646;49.716;9.266;2023-02-23T17:00:52;99933.63;;;12.47;83.55
17060;BME280;8646;49.716;9.266;2023-02-23T17:03:56;99937.53;;;12.41;83.82
17060;BME280;8646;49.716;9.266;2023-02-23T17:07:00;99928.94;;;12.33;83.83